Time;durP1;ratioP1;P1;durP2;ratioP2;P2;SDS_P1;SDS_P2;PMS_P1;PMS_P2;Temp;Humidity;BMP_temperature;BMP_pressure;BME280_temperature;BME280_humidity;BME280_pressure;Samples;Min_cycle;Max_cycle;Signal;HPM_P1;HPM_P2
2022/05/18 00:02:21;;;;;;;0.20;0.20;;;;;;;19.89;59.41;101901.03;5058221;28;20074;-79
2022/05/18 00:04:47;;;;;;;0.38;0.38;;;;;;;19.86;59.10;101909.22;5059206;28;20029;-79
2022/05/18 00:07:13;;;;;;;0.00;0.00;;;;;;;19.84;59.30;101905.75;5054731;28;20390;-78
2022/05/18 00:09:39;;;;;;;0.00;0.00;;;;;;;19.82;59.02;101913.81;5061401;28;20025;-79
2022/05/18 00:12:06;;;;;;;0.17;0.17;;;;;;;19.81;59.37;101922.84;5057596;28;20025;-79
2022/05/18 00:14:32;;;;;;;0.10;0.10;;;;;;;19.82;59.63;101915.63;5061788;28;20039;-79
2022/05/18 00:17:02;;;;;;;0.10;0.10;;;;;;;19.80;59.51;101915.72;5062352;28;20395;-79
2022/05/18 00:19:29;;;;;;;0.55;0.55;;;;;;;19.80;59.37;101925.56;5061343;28;20115;-79
2022/05/18 00:21:55;;;;;;;0.00;0.00;;;;;;;19.78;59.58;101922.09;5051417;28;20446;-78
2022/05/18 00:24:22;;;;;;;0.25;0.25;;;;;;;19.76;59.42;101932.03;5051371;28;20048;-78
2022/05/18 00:26:48;;;;;;;0.20;0.20;;;;;;;19.72;59.11;101933.97;5065133;28;20041;-78
2022/05/18 00:29:15;;;;;;;0.00;0.00;;;;;;;19.69;59.59;101932.28;5058324;28;20033;-78
2022/05/18 00:31:41;;;;;;;0.10;0.10;;;;;;;19.68;59.63;101938.59;5054769;28;20033;-80
2022/05/18 00:34:08;;;;;;;0.10;0.10;;;;;;;19.67;59.62;101936.84;5062603;28;20033;-79
2022/05/18 00:36:34;;;;;;;0.00;0.00;;;;;;;19.65;59.51;101941.41;5055291;28;20063;-80
2022/05/18 00:39:01;;;;;;;1.67;1.60;;;;;;;19.64;59.33;101934.28;5053764;28;20079;-80
2022/05/18 00:41:29;;;;;;;0.00;0.00;;;;;;;19.63;59.91;101929.84;5054382;28;20495;-78
2022/05/18 00:43:56;;;;;;;0.10;0.10;;;;;;;19.61;59.93;101931.72;5051258;28;20041;-78
2022/05/18 00:46:22;;;;;;;0.25;0.25;;;;;;;19.59;59.91;101932.72;5058392;28;20033;-78
2022/05/18 00:48:50;;;;;;;0.30;0.30;;;;;;;19.58;59.98;101931.84;5054835;28;20428;-79
2022/05/18 00:51:24;;;;;;;0.75;0.75;;;;;;;19.60;59.98;101927.28;5060723;28;20025;-78
2022/05/18 00:53:56;;;;;;;0.60;0.60;;;;;;;19.59;59.64;101922.84;5066103;22;20088;-76
2022/05/18 00:56:29;;;;;;;;;;;;;;;19.74;59.94;101924.03;5043024;28;20041;-77
2022/05/18 00:58:58;;;;;;;;;;;;;;;19.75;59.63;101927.59;5053505;28;19978;-77
2022/05/18 01:01:25;;;;;;;0.00;0.00;;;;;;;19.54;59.51;101922.16;5051484;28;19924;-77
2022/05/18 01:03:53;;;;;;;0.05;0.05;;;;;;;19.56;60.64;101918.47;5049087;28;20047;-77
2022/05/18 01:06:30;;;;;;;0.20;0.20;;;;;;;19.56;59.97;101917.59;5048763;28;20044;-77
2022/05/18 01:09:09;;;;;;;0.05;0.05;;;;;;;19.44;61.05;101920.75;5049811;28;20063;-77
2022/05/18 01:11:39;;;;;;;0.20;0.20;;;;;;;19.34;60.72;101929.22;5051111;28;20032;-77
2022/05/18 01:14:13;;;;;;;0.47;0.47;;;;;;;19.32;61.07;101923.00;5052612;28;20063;-77
2022/05/18 01:16:39;;;;;;;0.52;0.52;;;;;;;19.26;61.34;101925.06;5051270;28;20052;-77
2022/05/18 01:19:15;;;;;;;0.20;0.20;;;;;;;19.26;60.95;101922.38;5051155;28;20513;-78
2022/05/18 01:21:56;;;;;;;0.52;0.47;;;;;;;19.24;61.26;101925.16;5050540;28;20037;-77
2022/05/18 01:24:32;;;;;;;0.10;0.10;;;;;;;19.22;61.67;101919.81;5033572;28;20083;-77
2022/05/18 01:27:00;;;;;;;0.77;0.77;;;;;;;19.17;61.81;101920.94;5050397;28;20462;-77
2022/05/18 01:29:30;;;;;;;0.82;0.82;;;;;;;19.15;61.51;101920.13;5052000;28;20056;-78
2022/05/18 01:34:37;;;;;;;0.28;0.28;;;;;;;19.07;61.70;101923.09;5100107;27;20428;-80
2022/05/18 01:37:03;;;;;;;0.13;0.13;;;;;;;19.04;61.67;101936.63;5091028;28;20028;-80
2022/05/18 01:39:36;;;;;;;0.13;0.13;;;;;;;18.98;61.95;101928.81;5090956;28;20415;-77
2022/05/18 01:42:19;;;;;;;0.10;0.10;;;;;;;19.00;62.12;101925.13;5071116;28;20032;-78
2022/05/18 01:44:45;;;;;;;0.63;0.13;;;;;;;18.94;61.71;101925.41;5069175;28;20048;-78
2022/05/18 01:47:11;;;;;;;0.15;0.15;;;;;;;18.92;61.58;101928.13;5075322;28;20029;-79
2022/05/18 01:49:40;;;;;;;0.22;0.22;;;;;;;18.92;61.59;101912.00;5078694;28;20075;-79
2022/05/18 01:52:08;;;;;;;0.08;0.08;;;;;;;18.94;61.49;101925.41;5089403;28;20044;-78
2022/05/18 01:54:40;;;;;;;0.35;0.35;;;;;;;18.96;61.81;101923.50;5082371;28;20498;-78
2022/05/18 01:57:06;;;;;;;0.10;0.10;;;;;;;18.93;61.75;101923.63;5087069;28;20032;-77
2022/05/18 01:59:33;;;;;;;0.10;0.10;;;;;;;18.92;61.24;101914.69;5068663;28;20063;-79
2022/05/18 02:01:59;;;;;;;0.25;0.25;;;;;;;18.93;61.34;101910.22;5073385;28;20032;-79
2022/05/18 02:04:26;;;;;;;7.75;0.65;;;;;;;18.95;61.08;101911.00;5088117;28;20039;-79
2022/05/18 02:06:52;;;;;;;0.93;0.93;;;;;;;18.94;61.20;101909.28;5088033;28;20051;-78
2022/05/18 02:09:20;;;;;;;0.05;0.05;;;;;;;18.96;61.12;101911.91;5074069;28;20036;-78
2022/05/18 02:11:50;;;;;;;0.00;0.00;;;;;;;18.98;61.25;101910.91;5076174;28;20025;-78
2022/05/18 02:14:16;;;;;;;0.50;0.50;;;;;;;18.98;61.41;101905.53;5088170;28;20059;-78
2022/05/18 02:16:43;;;;;;;0.25;0.25;;;;;;;19.01;61.46;101900.03;5084109;28;20487;-78
2022/05/18 02:19:09;;;;;;;0.00;0.00;;;;;;;19.03;61.22;101900.00;5076107;28;20514;-78
2022/05/18 02:21:35;;;;;;;0.25;0.25;;;;;;;19.02;61.09;101896.41;5079071;28;20059;-78
2022/05/18 02:24:02;;;;;;;0.10;0.10;;;;;;;19.02;60.89;101890.19;5081973;28;20114;-79
2022/05/18 02:26:28;;;;;;;0.20;0.20;;;;;;;19.02;61.21;101899.09;5073430;28;20031;-79
2022/05/18 02:28:54;;;;;;;0.10;0.10;;;;;;;19.03;60.73;101892.81;5084340;28;20038;-79
2022/05/18 02:31:20;;;;;;;0.08;0.08;;;;;;;19.03;60.89;101892.81;5084737;28;20025;-79
2022/05/18 02:33:47;;;;;;;2.17;1.48;;;;;;;19.03;61.10;101895.47;5083292;28;20037;-79
2022/05/18 02:36:13;;;;;;;0.25;0.25;;;;;;;19.02;60.60;101904.47;5087595;28;20125;-79
2022/05/18 02:38:41;;;;;;;0.00;0.00;;;;;;;19.03;60.67;101903.53;5069397;28;20481;-78
2022/05/18 02:41:08;;;;;;;0.00;0.00;;;;;;;19.02;61.34;101907.16;5079941;28;20054;-78
2022/05/18 02:43:37;;;;;;;0.63;0.63;;;;;;;19.02;60.96;101911.66;5069805;28;20507;-78
2022/05/18 02:48:40;;;;;;;0.63;0.63;;;;;;;19.06;61.14;101918.66;5070333;28;20430;-79
2022/05/18 02:51:08;;;;;;;0.03;0.03;;;;;;;19.08;61.09;101923.03;5058397;28;20037;-79
2022/05/18 02:53:34;;;;;;;0.28;0.28;;;;;;;19.13;60.76;101917.50;5044885;28;20045;-79
2022/05/18 02:56:08;;;;;;;0.00;0.00;;;;;;;19.19;61.02;101921.75;5033354;28;20030;-78
2022/05/18 02:58:43;;;;;;;0.20;0.20;;;;;;;19.26;61.12;101925.94;5032470;28;20022;-78
2022/05/18 03:01:13;;;;;;;1.88;0.80;;;;;;;19.26;61.19;101928.63;5034169;28;20051;-78
2022/05/18 03:03:40;;;;;;;0.00;0.00;;;;;;;19.26;61.10;101931.31;5048480;28;20029;-78
2022/05/18 03:06:08;;;;;;;0.10;0.10;;;;;;;19.27;61.26;101932.22;5041772;28;20475;-81
2022/05/18 03:08:36;;;;;;;0.75;0.75;;;;;;;19.25;61.31;101926.88;5037917;28;20068;-78
2022/05/18 03:11:03;;;;;;;2.70;1.08;;;;;;;19.24;61.07;101928.69;5031043;28;20037;-78
2022/05/18 03:13:29;;;;;;;0.28;0.28;;;;;;;19.24;60.37;101936.75;5031947;28;20071;-79
2022/05/18 03:15:56;;;;;;;0.10;0.10;;;;;;;19.23;60.82;101932.31;5037401;28;20060;-79
2022/05/18 03:18:23;;;;;;;0.00;0.00;;;;;;;19.33;61.07;101935.50;5044401;28;20033;-79
2022/05/18 03:23:37;;;;;;;0.10;0.10;;;;;;;19.34;60.59;101934.59;5035008;28;20045;-79
2022/05/18 03:26:13;;;;;;;0.13;0.13;;;;;;;19.38;60.38;101944.25;5037515;28;20029;-78
2022/05/18 03:28:41;;;;;;;0.10;0.10;;;;;;;19.29;60.55;101950.03;5042522;28;20063;-78
2022/05/18 03:31:08;;;;;;;1.75;1.35;;;;;;;19.28;60.36;101948.25;5041560;28;20495;-79
2022/05/18 03:33:35;;;;;;;0.20;0.20;;;;;;;19.27;60.67;101953.69;5049472;28;20040;-78
2022/05/18 03:36:03;;;;;;;13.40;1.73;;;;;;;19.11;61.29;101980.28;5039792;28;20131;-78
2022/05/18 03:38:29;;;;;;;0.90;0.90;;;;;;;19.07;61.54;101971.44;5031435;28;20509;-79
2022/05/18 03:40:55;;;;;;;0.28;0.28;;;;;;;19.12;60.63;101973.97;5044415;28;20107;-79
2022/05/18 03:43:22;;;;;;;0.80;0.80;;;;;;;19.08;61.36;101970.53;5045391;28;20032;-78
2022/05/18 03:45:49;;;;;;;0.55;0.55;;;;;;;19.10;61.07;101978.50;5041474;28;20056;-79
2022/05/18 03:48:17;;;;;;;1.00;1.00;;;;;;;19.13;61.04;101978.38;5040901;28;20377;-79
2022/05/18 03:50:46;;;;;;;0.75;0.75;;;;;;;19.05;61.85;101986.75;5033057;28;20037;-79
2022/05/18 03:53:12;;;;;;;0.65;0.65;;;;;;;19.15;61.51;101971.16;5025757;28;20033;-79
2022/05/18 03:55:41;;;;;;;1.02;1.02;;;;;;;19.18;61.52;101976.44;5041249;28;20394;-79
2022/05/18 03:58:09;;;;;;;0.13;0.13;;;;;;;19.23;61.33;101971.75;5040194;28;20052;-78
2022/05/18 04:00:36;;;;;;;7.00;1.52;;;;;;;19.26;61.04;101987.75;5025059;28;20520;-78
2022/05/18 04:03:03;;;;;;;0.40;0.40;;;;;;;19.31;61.08;101983.06;5029936;28;20404;-79
2022/05/18 04:05:30;;;;;;;0.10;0.10;;;;;;;19.36;60.53;101985.56;5028428;28;20041;-78
2022/05/18 04:07:56;;;;;;;0.68;0.47;;;;;;;19.37;61.21;101987.34;5033464;28;20036;-79
2022/05/18 04:10:22;;;;;;;0.22;0.22;;;;;;;19.41;60.77;101983.59;5018526;28;20046;-79
2022/05/18 04:12:48;;;;;;;0.57;0.57;;;;;;;19.46;60.69;101981.59;5025370;28;20030;-79
2022/05/18 04:15:16;;;;;;;0.30;0.30;;;;;;;19.51;60.62;101982.28;5020419;28;20064;-79
2022/05/18 04:17:44;;;;;;;0.10;0.10;;;;;;;19.59;60.62;101979.31;5023814;28;20116;-79
2022/05/18 04:20:14;;;;;;;0.00;0.00;;;;;;;19.68;60.81;101984.28;5027850;28;20029;-79
2022/05/18 04:22:41;;;;;;;0.20;0.20;;;;;;;19.76;60.84;101988.50;5027836;28;20029;-78
2022/05/18 04:25:09;;;;;;;0.08;0.08;;;;;;;19.83;60.42;101980.16;5020996;28;20025;-79
2022/05/18 04:27:35;;;;;;;0.00;0.00;;;;;;;19.91;60.26;101993.28;5016876;28;20026;-79
2022/05/18 04:30:01;;;;;;;0.63;0.40;;;;;;;19.98;60.49;101984.00;5023744;28;20449;-79
2022/05/18 04:32:27;;;;;;;0.03;0.03;;;;;;;20.08;60.08;101989.91;5015551;28;20047;-78
2022/05/18 04:34:53;;;;;;;0.00;0.00;;;;;;;20.16;60.19;101986.88;5019497;28;20026;-79
2022/05/18 04:37:19;;;;;;;0.30;0.30;;;;;;;20.24;60.05;101984.75;5032665;28;20025;-79
2022/05/18 04:39:46;;;;;;;0.10;0.10;;;;;;;20.33;60.28;101987.03;5019243;28;20119;-79
2022/05/18 04:42:13;;;;;;;0.20;0.20;;;;;;;20.44;60.18;101991.09;5013898;28;20639;-79
2022/05/18 04:44:40;;;;;;;0.10;0.10;;;;;;;20.54;60.19;101992.44;5029214;28;20433;-78
2022/05/18 04:47:06;;;;;;;0.15;0.15;;;;;;;20.62;59.77;101995.69;5024930;28;20492;-79
2022/05/18 04:49:33;;;;;;;0.05;0.05;;;;;;;20.72;59.77;102006.06;5032685;28;20120;-78
2022/05/18 04:52:01;;;;;;;0.10;0.10;;;;;;;20.79;59.33;102003.03;5019460;28;20084;-79
2022/05/18 04:54:27;;;;;;;0.10;0.10;;;;;;;20.85;59.35;101996.50;5015237;28;20021;-79
2022/05/18 04:56:53;;;;;;;0.35;0.35;;;;;;;20.90;59.27;101997.16;5015874;28;20038;-78
2022/05/18 04:59:19;;;;;;;2.03;1.30;;;;;;;20.96;59.37;101999.56;5022734;28;20026;-79
2022/05/18 05:01:45;;;;;;;1.30;1.27;;;;;;;21.03;59.04;102002.00;5027743;28;20036;-79
2022/05/18 05:04:13;;;;;;;0.00;0.00;;;;;;;21.07;59.24;102006.28;5022338;28;20030;-79
2022/05/18 05:06:43;;;;;;;0.10;0.10;;;;;;;21.12;59.41;102010.53;5023825;28;20061;-79
2022/05/18 05:09:09;;;;;;;0.10;0.10;;;;;;;21.18;59.12;102014.75;5028525;28;20033;-79
2022/05/18 05:11:36;;;;;;;0.25;0.25;;;;;;;21.22;58.88;102016.38;5026813;28;20065;-79
2022/05/18 05:14:02;;;;;;;0.10;0.10;;;;;;;21.27;58.88;102017.03;5014885;28;20046;-79
2022/05/18 05:16:29;;;;;;;0.20;0.20;;;;;;;21.29;58.65;102022.34;5018015;28;20028;-78
2022/05/18 05:18:56;;;;;;;1.33;0.45;;;;;;;21.36;58.53;102028.31;5013910;28;20026;-79
2022/05/18 05:21:23;;;;;;;0.30;0.30;;;;;;;21.38;58.73;102019.19;5022319;28;20033;-78
2022/05/18 05:23:49;;;;;;;0.15;0.15;;;;;;;21.45;58.44;102025.19;5020909;28;20109;-78
2022/05/18 05:26:16;;;;;;;0.17;0.17;;;;;;;21.49;58.60;102018.69;5018247;28;20614;-79
2022/05/18 05:28:42;;;;;;;0.10;0.10;;;;;;;21.50;58.50;102020.47;5016605;28;20180;-78
2022/05/18 05:31:11;;;;;;;0.20;0.20;;;;;;;21.56;58.25;102027.41;5014782;28;20030;-78
2022/05/18 05:33:39;;;;;;;0.52;0.52;;;;;;;21.61;58.08;102030.78;5017033;28;20112;-78
2022/05/18 05:36:06;;;;;;;0.17;0.17;;;;;;;21.65;58.01;102027.84;5020837;28;20037;-79
2022/05/18 05:38:33;;;;;;;0.38;0.38;;;;;;;21.74;58.08;102031.91;5023096;28;20051;-79
2022/05/18 05:41:00;;;;;;;0.10;0.10;;;;;;;21.81;57.87;102029.81;5018325;28;20030;-78
2022/05/18 05:43:26;;;;;;;0.55;0.55;;;;;;;21.88;57.80;102031.25;5024939;28;20444;-79
2022/05/18 05:46:13;;;;;;;0.55;0.55;;;;;;;22.05;57.25;102037.66;5016535;28;20048;-79
2022/05/18 05:48:41;;;;;;;0.40;0.40;;;;;;;21.91;57.53;102036.50;5016369;28;20029;-79
2022/05/18 05:51:12;;;;;;;0.10;0.10;;;;;;;22.00;57.48;102040.56;5027883;28;20404;-79
2022/05/18 05:53:39;;;;;;;1.88;1.77;;;;;;;22.09;57.22;102048.22;5031008;28;20030;-80
2022/05/18 05:56:07;;;;;;;1.00;1.00;;;;;;;22.15;57.09;102041.63;5024842;28;20050;-79
2022/05/18 05:58:35;;;;;;;0.20;0.20;;;;;;;22.21;57.10;102044.03;5019726;28;20065;-79
2022/05/18 06:01:03;;;;;;;0.98;0.45;;;;;;;22.25;56.99;102045.59;5022693;28;20165;-79
2022/05/18 06:03:30;;;;;;;0.30;0.30;;;;;;;22.22;57.08;102045.78;5024124;28;20473;-78
2022/05/18 06:05:56;;;;;;;1.88;1.60;;;;;;;22.28;57.05;102056.25;5017947;28;20038;-79
2022/05/18 06:08:23;;;;;;;0.80;0.60;;;;;;;22.32;57.30;102059.69;5019162;28;20460;-78
2022/05/18 06:10:50;;;;;;;0.43;0.43;;;;;;;22.34;57.29;102065.00;5029369;28;20548;-78
2022/05/18 06:13:16;;;;;;;0.93;0.90;;;;;;;22.34;57.66;102075.81;5021427;28;20029;-80
2022/05/18 06:15:43;;;;;;;1.13;1.13;;;;;;;22.35;57.51;102072.16;5020621;28;20606;-78
2022/05/18 06:18:10;;;;;;;1.35;1.00;;;;;;;22.26;58.10;102081.59;5015291;28;20079;-79
2022/05/18 06:20:36;;;;;;;0.80;0.80;;;;;;;22.34;57.55;102086.59;5012703;28;20028;-78
2022/05/18 06:23:06;;;;;;;0.38;0.38;;;;;;;22.28;58.65;102087.78;5013326;28;20029;-79
2022/05/18 06:25:33;;;;;;;2.08;0.75;;;;;;;22.33;57.95;102091.16;5013905;28;20143;-79
2022/05/18 06:27:59;;;;;;;2.03;1.80;;;;;;;22.33;57.96;102093.84;5025442;28;20062;-78
2022/05/18 06:30:26;;;;;;;0.08;0.08;;;;;;;22.28;58.47;102091.38;5020724;28;20456;-79
2022/05/18 06:32:53;;;;;;;0.70;0.70;;;;;;;22.32;58.10;102093.91;5019414;28;20048;-78
2022/05/18 06:35:19;;;;;;;1.00;0.80;;;;;;;22.36;58.30;102095.50;5018453;28;20018;-79
2022/05/18 06:37:45;;;;;;;0.35;0.35;;;;;;;22.32;58.46;102105.59;5022173;28;20030;-79
2022/05/18 06:40:12;;;;;;;2.05;1.92;;;;;;;22.11;59.12;102102.13;5015053;28;20038;-79
2022/05/18 06:42:39;;;;;;;0.10;0.10;;;;;;;22.21;58.91;102113.34;5016762;28;20068;-81
2022/05/18 06:45:08;;;;;;;0.13;0.13;;;;;;;22.25;59.07;102114.94;5018628;28;20022;-79
2022/05/18 06:47:34;;;;;;;0.82;0.82;;;;;;;22.22;59.01;102121.34;5022545;28;20499;-79
2022/05/18 06:50:02;;;;;;;0.65;0.65;;;;;;;22.37;58.81;102125.16;5027089;28;20048;-79
2022/05/18 06:52:28;;;;;;;0.20;0.20;;;;;;;22.35;58.83;102126.16;5024698;28;20083;-80
2022/05/18 06:54:54;;;;;;;0.22;0.22;;;;;;;22.50;58.51;102127.25;5022319;28;20050;-80
2022/05/18 06:57:20;;;;;;;0.10;0.10;;;;;;;22.44;58.28;102125.72;5026177;28;20030;-80
2022/05/18 06:59:47;;;;;;;0.10;0.10;;;;;;;22.51;57.93;102132.56;5015699;28;20486;-82
2022/05/18 07:02:13;;;;;;;0.20;0.20;;;;;;;22.60;57.73;102124.03;5018348;28;20042;-80
2022/05/18 07:04:39;;;;;;;0.10;0.10;;;;;;;22.66;57.98;102127.34;5011401;28;20026;-82
2022/05/18 07:07:05;;;;;;;1.27;1.15;;;;;;;22.81;57.52;102129.25;5017887;28;20026;-80
2022/05/18 07:09:33;;;;;;;0.10;0.10;;;;;;;22.83;57.33;102131.88;5008019;28;20393;-82
2022/05/18 07:11:59;;;;;;;0.25;0.25;;;;;;;22.83;56.57;102135.47;5017394;28;20454;-81
2022/05/18 07:14:29;;;;;;;0.10;0.10;;;;;;;22.89;56.65;102132.47;5017017;28;20072;-81
2022/05/18 07:16:56;;;;;;;0.10;0.10;;;;;;;22.84;56.70;102139.03;5017794;28;20113;-81
2022/05/18 07:19:23;;;;;;;0.25;0.25;;;;;;;22.83;56.04;102138.19;5009305;28;20034;-82
2022/05/18 07:21:49;;;;;;;1.23;0.43;;;;;;;22.84;55.53;102139.94;5011001;28;20022;-82
2022/05/18 07:24:16;;;;;;;0.28;0.20;;;;;;;22.94;55.61;102135.78;5018025;28;20059;-82
2022/05/18 07:26:43;;;;;;;0.20;0.20;;;;;;;22.94;55.44;102135.78;5017123;28;20410;-82
2022/05/18 07:29:10;;;;;;;0.10;0.10;;;;;;;23.04;54.91;102132.59;5005939;28;20380;-83
2022/05/18 07:32:20;;;;;;;0.57;0.57;;;;;;;23.02;53.42;102137.22;5008085;28;20041;-82
2022/05/18 07:34:23;;;;;;;0.68;0.68;;;;;;;23.06;54.00;102138.81;5018556;28;20129;-82
2022/05/18 07:36:52;;;;;;;5.22;1.92;;;;;;;23.13;53.94;102133.94;5019423;28;20048;-82
2022/05/18 07:39:18;;;;;;;0.88;0.88;;;;;;;23.19;53.03;102149.88;5019733;28;20030;-81
2022/05/18 07:41:44;;;;;;;0.20;0.20;;;;;;;23.27;53.37;102137.69;5019807;28;20051;-82
2022/05/18 07:44:11;;;;;;;5.07;0.90;;;;;;;23.28;52.73;102144.00;5011570;28;20042;-82
2022/05/18 07:46:37;;;;;;;0.20;0.20;;;;;;;23.42;52.77;102156.78;5020050;28;20058;-81
2022/05/18 07:49:05;;;;;;;3.13;1.85;;;;;;;23.42;52.54;102151.34;5020928;28;20034;-81
2022/05/18 07:51:32;;;;;;;0.00;0.00;;;;;;;23.42;51.89;102157.63;5017737;28;20034;-81
2022/05/18 07:53:59;;;;;;;0.15;0.15;;;;;;;23.43;51.73;102169.34;5015701;28;20033;-81
2022/05/18 07:56:28;;;;;;;0.15;0.15;;;;;;;23.52;51.43;102162.56;5020452;28;20038;-81
2022/05/18 07:58:55;;;;;;;0.40;0.40;;;;;;;23.52;51.34;102174.25;5021486;28;20052;-83
2022/05/18 08:01:21;;;;;;;0.30;0.30;;;;;;;23.54;51.70;102171.44;5021085;28;20080;-85
2022/05/18 08:03:48;;;;;;;3.10;0.93;;;;;;;23.62;51.46;102168.34;5015821;28;20038;-81
2022/05/18 08:06:14;;;;;;;0.65;0.63;;;;;;;23.65;51.13;102173.59;5008133;28;20072;-83
2022/05/18 08:08:41;;;;;;;5.05;1.58;;;;;;;23.79;51.27;102176.41;5019976;28;20442;-81
2022/05/18 08:16:40;;;;;;;0.17;0.17;;;;;;;23.76;50.14;102195.50;5021670;28;20037;-82
2022/05/18 08:19:10;;;;;;;0.00;0.00;;;;;;;23.83;50.34;102188.81;5021127;28;20025;-84
2022/05/18 08:21:37;;;;;;;0.60;0.45;;;;;;;23.93;50.49;102196.47;5008875;28;20402;-81
2022/05/18 08:24:05;;;;;;;0.10;0.10;;;;;;;23.92;50.35;102197.44;5012706;28;20045;-81
2022/05/18 08:26:31;;;;;;;0.45;0.45;;;;;;;23.99;50.15;102193.41;5019675;28;20038;-81
2022/05/18 08:28:58;;;;;;;0.10;0.10;;;;;;;24.11;50.16;102192.72;5014615;28;20502;-79
2022/05/18 08:31:24;;;;;;;0.15;0.15;;;;;;;24.12;49.36;102213.41;5006404;28;20042;-80
2022/05/18 08:33:52;;;;;;;1.85;1.55;;;;;;;24.08;49.67;102208.28;5015994;28;20026;-78
2022/05/18 08:36:18;;;;;;;0.47;0.43;;;;;;;24.01;49.65;102205.91;5016028;28;20537;-80
2022/05/18 08:38:45;;;;;;;0.10;0.10;;;;;;;23.99;49.80;102215.94;5013109;28;20018;-80
2022/05/18 08:41:19;;;;;;;0.30;0.30;;;;;;;23.92;50.26;102213.66;5007141;28;20036;-80
2022/05/18 08:43:50;;;;;;;0.00;0.00;;;;;;;23.92;49.94;102216.38;5015625;28;20030;-80
2022/05/18 08:56:49;;;;;;;0.93;0.93;;;;;;;23.93;49.83;102226.25;5086310;27;20388;-76
2022/05/18 08:59:24;;;;;;;1.35;1.27;;;;;;;23.88;49.20;102230.03;5068293;28;20495;-76
2022/05/18 09:01:56;;;;;;;1.65;0.68;;;;;;;23.92;49.39;102230.78;5059024;28;20028;-76
2022/05/18 09:04:28;;;;;;;0.20;0.20;;;;;;;23.99;49.28;102228.59;5066912;28;20393;-77
2022/05/18 09:07:02;;;;;;;0.20;0.20;;;;;;;24.04;48.83;102223.81;5062687;28;20111;-76
2022/05/18 09:12:24;;;;;;;0.20;0.20;;;;;;;24.19;49.22;102230.22;5061513;28;20170;-75
2022/05/18 09:14:52;;;;;;;0.88;0.85;;;;;;;24.22;49.02;102230.94;5066303;28;20426;-76
2022/05/18 09:17:34;;;;;;;0.10;0.10;;;;;;;24.40;48.99;102220.00;5067257;28;20059;-76
2022/05/18 09:20:20;;;;;;;0.17;0.17;;;;;;;24.47;48.67;102221.38;5068370;28;20052;-76
2022/05/18 09:39:34;;;;;;;0.30;0.30;;;;;;;24.79;47.63;102224.09;5108150;27;20362;-76
2022/05/18 09:42:08;;;;;;;0.40;0.40;;;;;;;24.86;47.92;102228.22;5108526;28;20378;-75
2022/05/18 09:44:59;;;;;;;0.30;0.30;;;;;;;25.04;48.62;102220.81;5109287;28;20443;-75
2022/05/18 09:47:28;;;;;;;0.10;0.10;;;;;;;24.93;47.41;102219.72;5107681;28;20028;-75
2022/05/18 09:49:58;;;;;;;0.73;0.73;;;;;;;25.02;47.56;102228.19;5108143;28;20031;-75
2022/05/18 09:52:28;;;;;;;0.35;0.35;;;;;;;25.06;47.10;102223.47;5103178;28;20103;-76
2022/05/18 09:54:58;;;;;;;1.17;0.88;;;;;;;24.96;46.97;102233.06;5108652;28;20031;-77
2022/05/18 09:57:35;;;;;;;0.47;0.32;;;;;;;25.25;47.56;102230.50;5099575;28;20055;-75
2022/05/18 10:00:07;;;;;;;0.47;0.47;;;;;;;25.32;46.26;102229.13;5086601;28;20523;-76
2022/05/18 10:08:10;;;;;;;0.05;0.05;;;;;;;25.46;45.80;102231.91;5039790;28;20690;-76
2022/05/18 10:10:38;;;;;;;0.00;0.00;;;;;;;25.56;45.86;102231.34;5047519;28;20103;-76
2022/05/18 10:15:59;;;;;;;0.15;0.15;;;;;;;25.62;46.10;102225.53;5100249;27;20433;-76
2022/05/18 10:18:53;;;;;;;0.45;0.45;;;;;;;25.79;46.41;102221.78;5080601;28;20049;-76
2022/05/18 10:21:26;;;;;;;0.10;0.10;;;;;;;25.88;47.10;102228.47;5082015;28;20047;-75
2022/05/18 10:26:40;;;;;;;0.10;0.10;;;;;;;26.12;45.58;102218.78;5092142;27;20364;-72
2022/05/18 10:34:44;;;;;;;0.10;0.10;;;;;;;26.53;43.74;102218.88;5073252;27;20405;-74
2022/05/18 10:37:12;;;;;;;0.20;0.20;;;;;;;26.69;44.87;102216.03;5058489;28;20094;-75
2022/05/18 10:39:44;;;;;;;1.15;1.05;;;;;;;26.80;44.65;102224.34;5048589;28;20035;-76
2022/05/18 10:42:21;;;;;;;0.10;0.10;;;;;;;26.87;43.71;102217.53;5054107;28;20036;-77
2022/05/18 10:44:47;;;;;;;0.10;0.10;;;;;;;26.79;43.55;102218.06;5057519;28;20070;-79
2022/05/18 10:47:36;;;;;;;1.27;1.17;;;;;;;26.98;44.32;102210.47;5064734;28;20028;-77
2022/05/18 10:50:25;;;;;;;2.20;0.55;;;;;;;27.21;44.12;102217.06;5059997;28;20052;-77
2022/05/18 10:52:55;;;;;;;0.20;0.20;;;;;;;27.15;42.26;102222.94;5062245;28;20024;-78
2022/05/18 10:55:24;;;;;;;0.20;0.20;;;;;;;27.27;43.03;102222.09;5065082;28;20064;-78
2022/05/18 10:58:04;;;;;;;0.10;0.10;;;;;;;27.36;43.31;102215.13;5060158;28;20120;-77
2022/05/18 11:06:14;;;;;;;0.30;0.30;;;;;;;26.94;41.54;102216.16;5081888;27;1922330;-75
2022/05/18 11:08:40;;;;;;;0.10;0.10;;;;;;;26.94;43.17;102227.03;5128237;28;20035;-75
2022/05/18 11:14:15;;;;;;;0.10;0.10;;;;;;;27.08;42.36;102223.34;5066159;28;20393;-75
2022/05/18 11:22:23;;;;;;;0.38;0.38;;;;;;;27.10;39.22;102225.97;5059389;28;21664;-74
2022/05/18 11:31:20;;;;;;;0.28;0.28;;;;;;;27.42;40.00;102228.34;5144174;27;20144;-74
2022/05/18 11:39:25;;;;;;;0.10;0.10;;;;;;;27.28;38.82;102230.13;5063109;28;20517;-75
2022/05/18 11:42:07;;;;;;;0.10;0.10;;;;;;;27.18;40.00;102220.00;5061844;28;20094;-75
2022/05/18 11:53:13;;;;;;;0.15;0.15;;;;;;;27.61;40.31;102214.28;5074690;27;1870213;-75
2022/05/18 11:58:52;;;;;;;0.20;0.20;;;;;;;27.68;39.04;102209.31;5088353;27;20626;-76
2022/05/18 12:01:52;;;;;;;0.52;0.52;;;;;;;27.76;39.38;102218.66;5084562;28;20516;-75
2022/05/18 12:04:35;;;;;;;0.20;0.20;;;;;;;27.80;39.60;102218.44;5087263;28;20032;-75
2022/05/18 12:07:25;;;;;;;0.10;0.10;;;;;;;27.86;39.50;102213.41;5088370;28;20074;-76
2022/05/18 12:12:58;;;;;;;0.10;0.10;;;;;;;28.04;39.37;102213.97;5067638;28;20141;-75
2022/05/18 12:18:07;;;;;;;0.10;0.10;;;;;;;28.19;38.24;102224.75;5082072;28;20482;-76
2022/05/18 12:20:45;;;;;;;5.03;0.50;;;;;;;28.24;39.02;102217.94;5068936;28;20041;-76
2022/05/18 12:23:16;;;;;;;0.10;0.10;;;;;;;28.17;38.79;102213.06;5068901;28;20517;-76
2022/05/18 12:25:43;;;;;;;0.60;0.50;;;;;;;28.16;37.90;102209.47;5068351;28;20044;-76
2022/05/18 12:28:12;;;;;;;4.95;1.25;;;;;;;28.09;37.50;102228.13;5067091;28;20091;-76
2022/05/18 12:30:41;;;;;;;0.10;0.10;;;;;;;27.92;36.76;102226.56;5065329;28;20071;-76
2022/05/18 12:33:09;;;;;;;0.10;0.10;;;;;;;28.08;37.51;102220.91;5053042;28;20384;-75
2022/05/18 12:35:56;;;;;;;0.10;0.10;;;;;;;28.03;36.43;102217.63;5047630;28;20029;-75
2022/05/18 12:41:04;;;;;;;0.10;0.10;;;;;;;28.13;37.54;102214.28;5104032;27;20400;-76
2022/05/18 12:56:51;;;;;;;0.00;0.00;;;;;;;28.52;36.51;102201.41;5089990;28;20392;-75
2022/05/18 12:59:23;;;;;;;0.10;0.10;;;;;;;28.44;36.75;102201.09;5080809;28;20032;-76
2022/05/18 13:02:03;;;;;;;0.45;0.45;;;;;;;28.37;35.92;102207.00;5077936;28;20397;-76
2022/05/18 13:04:46;;;;;;;0.10;0.10;;;;;;;28.39;36.09;102207.75;5088774;28;20066;-75
2022/05/18 13:07:35;;;;;;;0.47;0.47;;;;;;;28.48;36.32;102203.47;5089169;28;20028;-75
2022/05/18 13:10:22;;;;;;;1.25;0.35;;;;;;;28.53;35.75;102211.31;5087687;28;20028;-75
2022/05/18 13:15:52;;;;;;;2.50;0.68;;;;;;;28.66;35.27;102205.78;5107213;27;1226342;-75
2022/05/18 13:18:27;;;;;;;0.10;0.10;;;;;;;28.72;35.27;102208.09;5121372;28;20423;-76
2022/05/18 13:21:04;;;;;;;0.20;0.20;;;;;;;28.94;35.87;102204.59;5128252;27;20023;-76
2022/05/18 13:28:45;;;;;;;0.15;0.15;;;;;;;29.34;34.71;102206.97;5108769;27;20358;-75
2022/05/18 13:31:14;;;;;;;0.10;0.10;;;;;;;29.39;34.53;102206.63;5098530;28;20110;-76
2022/05/18 13:33:50;;;;;;;0.10;0.10;;;;;;;29.45;34.08;102203.41;5090146;28;20032;-76
2022/05/18 13:39:11;;;;;;;0.10;0.10;;;;;;;29.44;34.58;102203.53;5069454;28;20378;-76
2022/05/18 13:41:42;;;;;;;1.35;0.60;;;;;;;29.46;34.37;102207.88;5067239;28;20422;-76
2022/05/18 13:44:09;;;;;;;0.10;0.10;;;;;;;29.57;34.03;102206.13;5067946;28;20094;-76
2022/05/18 13:46:36;;;;;;;0.75;0.75;;;;;;;29.60;32.92;102201.31;5067500;28;20127;-75